sensor_id;sensor_type;location;lat;lon;timestamp;temperature;humidity
68493;HTU21D;55483;51.106;5.984;2023-06-14T00:00:12;20.14;53.69
68493;HTU21D;55483;51.106;5.984;2023-06-14T00:02:41;20.09;53.88
68493;HTU21D;55483;51.106;5.984;2023-06-14T00:05:07;20.07;53.75
68493;HTU21D;55483;51.106;5.984;2023-06-14T00:07:35;20.07;53.87
68493;HTU21D;55483;51.106;5.984;2023-06-14T00:10:01;20.05;53.86
68493;HTU21D;55483;51.106;5.984;2023-06-14T00:12:26;20.02;53.76
68493;HTU21D;55483;51.106;5.984;2023-06-14T00:14:52;19.97;53.94
68493;HTU21D;55483;51.106;5.984;2023-06-14T00:17:17;19.87;54.36
68493;HTU21D;55483;51.106;5.984;2023-06-14T00:19:43;19.85;54.76
68493;HTU21D;55483;51.106;5.984;2023-06-14T00:22:09;19.83;54.87
68493;HTU21D;55483;51.106;5.984;2023-06-14T00:24:34;19.81;54.93
68493;HTU21D;55483;51.106;5.984;2023-06-14T00:27:00;19.73;54.60
68493;HTU21D;55483;51.106;5.984;2023-06-14T00:29:26;19.65;54.68
68493;HTU21D;55483;51.106;5.984;2023-06-14T00:31:52;19.57;54.65
68493;HTU21D;55483;51.106;5.984;2023-06-14T00:34:18;19.50;54.74
68493;HTU21D;55483;51.106;5.984;2023-06-14T00:36:43;19.40;55.07
68493;HTU21D;55483;51.106;5.984;2023-06-14T00:39:09;19.32;55.49
68493;HTU21D;55483;51.106;5.984;2023-06-14T00:41:35;19.26;55.94
68493;HTU21D;55483;51.106;5.984;2023-06-14T00:44:00;19.25;55.94
68493;HTU21D;55483;51.106;5.984;2023-06-14T00:46:26;19.12;56.11
68493;HTU21D;55483;51.106;5.984;2023-06-14T00:48:55;18.88;56.74
68493;HTU21D;55483;51.106;5.984;2023-06-14T00:51:21;18.76;57.31
68493;HTU21D;55483;51.106;5.984;2023-06-14T00:53:47;18.62;57.72
68493;HTU21D;55483;51.106;5.984;2023-06-14T00:56:14;18.54;58.21
68493;HTU21D;55483;51.106;5.984;2023-06-14T00:58:41;18.54;58.58
68493;HTU21D;55483;51.106;5.984;2023-06-14T01:01:07;18.54;58.79
68493;HTU21D;55483;51.106;5.984;2023-06-14T01:03:34;18.54;58.67
68493;HTU21D;55483;51.106;5.984;2023-06-14T01:06:09;18.57;58.85
68493;HTU21D;55483;51.106;5.984;2023-06-14T01:09:07;18.54;59.04
68493;HTU21D;55483;51.106;5.984;2023-06-14T01:11:51;18.51;59.18
68493;HTU21D;55483;51.106;5.984;2023-06-14T01:14:21;18.51;59.29
68493;HTU21D;55483;51.106;5.984;2023-06-14T01:16:47;18.47;59.36
68493;HTU21D;55483;51.106;5.984;2023-06-14T01:19:15;18.39;59.53
68493;HTU21D;55483;51.106;5.984;2023-06-14T01:21:41;18.32;59.85
68493;HTU21D;55483;51.106;5.984;2023-06-14T01:24:09;18.26;60.18
68493;HTU21D;55483;51.106;5.984;2023-06-14T01:26:35;18.20;60.55
68493;HTU21D;55483;51.106;5.984;2023-06-14T01:29:03;18.17;60.94
68493;HTU21D;55483;51.106;5.984;2023-06-14T01:31:30;18.13;61.07
68493;HTU21D;55483;51.106;5.984;2023-06-14T01:34:05;18.14;61.20
68493;HTU21D;55483;51.106;5.984;2023-06-14T01:36:31;18.11;61.25
68493;HTU21D;55483;51.106;5.984;2023-06-14T01:38:59;18.05;61.48
68493;HTU21D;55483;51.106;5.984;2023-06-14T01:41:27;17.99;61.89
68493;HTU21D;55483;51.106;5.984;2023-06-14T01:43:55;17.98;62.23
68493;HTU21D;55483;51.106;5.984;2023-06-14T01:46:23;18.00;62.39
68493;HTU21D;55483;51.106;5.984;2023-06-14T01:48:49;17.99;62.54
68493;HTU21D;55483;51.106;5.984;2023-06-14T01:51:15;17.97;62.96
68493;HTU21D;55483;51.106;5.984;2023-06-14T01:53:41;17.93;63.34
68493;HTU21D;55483;51.106;5.984;2023-06-14T01:56:09;17.91;63.24
68493;HTU21D;55483;51.106;5.984;2023-06-14T01:58:35;17.89;62.98
68493;HTU21D;55483;51.106;5.984;2023-06-14T02:01:01;17.85;62.89
68493;HTU21D;55483;51.106;5.984;2023-06-14T02:03:27;17.80;62.85
68493;HTU21D;55483;51.106;5.984;2023-06-14T02:05:53;17.77;62.47
68493;HTU21D;55483;51.106;5.984;2023-06-14T02:08:19;17.75;61.76
68493;HTU21D;55483;51.106;5.984;2023-06-14T02:10:45;17.70;61.21
68493;HTU21D;55483;51.106;5.984;2023-06-14T02:13:11;17.67;61.24
68493;HTU21D;55483;51.106;5.984;2023-06-14T02:15:38;17.62;61.54
68493;HTU21D;55483;51.106;5.984;2023-06-14T02:18:05;17.55;61.93
68493;HTU21D;55483;51.106;5.984;2023-06-14T02:20:32;17.49;62.34
68493;HTU21D;55483;51.106;5.984;2023-06-14T02:22:58;17.46;62.66
68493;HTU21D;55483;51.106;5.984;2023-06-14T02:25:24;17.43;63.19
68493;HTU21D;55483;51.106;5.984;2023-06-14T02:27:49;17.35;63.72
68493;HTU21D;55483;51.106;5.984;2023-06-14T02:30:15;17.28;64.29
68493;HTU21D;55483;51.106;5.984;2023-06-14T02:32:41;17.22;64.06
68493;HTU21D;55483;51.106;5.984;2023-06-14T02:35:08;17.17;64.63
68493;HTU21D;55483;51.106;5.984;2023-06-14T02:37:34;17.15;65.18
68493;HTU21D;55483;51.106;5.984;2023-06-14T02:40:00;17.13;65.89
68493;HTU21D;55483;51.106;5.984;2023-06-14T02:42:26;17.10;66.35
68493;HTU21D;55483;51.106;5.984;2023-06-14T02:44:51;17.05;66.53
68493;HTU21D;55483;51.106;5.984;2023-06-14T02:47:20;17.02;66.55
68493;HTU21D;55483;51.106;5.984;2023-06-14T02:49:46;17.03;66.53
68493;HTU21D;55483;51.106;5.984;2023-06-14T02:52:15;17.04;66.47
68493;HTU21D;55483;51.106;5.984;2023-06-14T02:54:40;17.02;66.59
68493;HTU21D;55483;51.106;5.984;2023-06-14T02:57:07;17.01;66.71
68493;HTU21D;55483;51.106;5.984;2023-06-14T02:59:34;16.98;66.88
68493;HTU21D;55483;51.106;5.984;2023-06-14T03:02:01;16.95;67.04
68493;HTU21D;55483;51.106;5.984;2023-06-14T03:04:26;16.91;67.14
68493;HTU21D;55483;51.106;5.984;2023-06-14T03:06:52;16.86;67.27
68493;HTU21D;55483;51.106;5.984;2023-06-14T03:09:20;16.82;67.36
68493;HTU21D;55483;51.106;5.984;2023-06-14T03:11:46;16.80;67.48
68493;HTU21D;55483;51.106;5.984;2023-06-14T03:14:13;16.77;67.64
68493;HTU21D;55483;51.106;5.984;2023-06-14T03:16:40;16.78;67.59
68493;HTU21D;55483;51.106;5.984;2023-06-14T03:19:09;16.78;67.81
68493;HTU21D;55483;51.106;5.984;2023-06-14T03:21:35;16.74;67.94
68493;HTU21D;55483;51.106;5.984;2023-06-14T03:24:02;16.73;68.00
68493;HTU21D;55483;51.106;5.984;2023-06-14T03:26:29;16.70;68.33
68493;HTU21D;55483;51.106;5.984;2023-06-14T03:28:58;16.66;68.56
68493;HTU21D;55483;51.106;5.984;2023-06-14T03:31:24;16.64;68.64
68493;HTU21D;55483;51.106;5.984;2023-06-14T03:33:50;16.59;69.20
68493;HTU21D;55483;51.106;5.984;2023-06-14T03:36:17;16.58;69.33
68493;HTU21D;55483;51.106;5.984;2023-06-14T03:38:43;16.55;69.45
68493;HTU21D;55483;51.106;5.984;2023-06-14T03:41:09;16.47;69.35
68493;HTU21D;55483;51.106;5.984;2023-06-14T03:43:35;16.43;69.40
68493;HTU21D;55483;51.106;5.984;2023-06-14T03:46:01;16.47;69.34
68493;HTU21D;55483;51.106;5.984;2023-06-14T03:48:29;16.51;69.33
68493;HTU21D;55483;51.106;5.984;2023-06-14T03:50:55;16.56;69.24
68493;HTU21D;55483;51.106;5.984;2023-06-14T03:53:21;16.59;69.37
68493;HTU21D;55483;51.106;5.984;2023-06-14T03:55:50;16.60;69.41
68493;HTU21D;55483;51.106;5.984;2023-06-14T03:58:18;16.62;69.58
68493;HTU21D;55483;51.106;5.984;2023-06-14T04:00:46;16.58;69.67
68493;HTU21D;55483;51.106;5.984;2023-06-14T04:03:12;16.55;70.11
68493;HTU21D;55483;51.106;5.984;2023-06-14T04:05:39;16.69;69.87
68493;HTU21D;55483;51.106;5.984;2023-06-14T04:08:08;16.72;69.74
68493;HTU21D;55483;51.106;5.984;2023-06-14T04:10:35;16.73;70.39
68493;HTU21D;55483;51.106;5.984;2023-06-14T04:13:00;16.64;70.87
68493;HTU21D;55483;51.106;5.984;2023-06-14T04:15:26;16.58;71.76
68493;HTU21D;55483;51.106;5.984;2023-06-14T04:17:54;16.64;72.02
68493;HTU21D;55483;51.106;5.984;2023-06-14T04:20:23;16.92;70.74
68493;HTU21D;55483;51.106;5.984;2023-06-14T04:22:50;16.94;69.98
68493;HTU21D;55483;51.106;5.984;2023-06-14T04:25:16;16.94;69.98
68493;HTU21D;55483;51.106;5.984;2023-06-14T04:27:43;16.82;70.60
68493;HTU21D;55483;51.106;5.984;2023-06-14T04:30:10;16.96;70.21
68493;HTU21D;55483;51.106;5.984;2023-06-14T04:32:41;17.44;68.69
68493;HTU21D;55483;51.106;5.984;2023-06-14T04:35:09;18.71;63.71
68493;HTU21D;55483;51.106;5.984;2023-06-14T04:37:37;20.13;58.71
68493;HTU21D;55483;51.106;5.984;2023-06-14T04:40:06;21.40;54.36
68493;HTU21D;55483;51.106;5.984;2023-06-14T04:42:33;22.47;50.83
68493;HTU21D;55483;51.106;5.984;2023-06-14T04:45:03;23.34;48.60
68493;HTU21D;55483;51.106;5.984;2023-06-14T04:47:28;24.18;46.51
68493;HTU21D;55483;51.106;5.984;2023-06-14T04:49:57;24.85;44.98
68493;HTU21D;55483;51.106;5.984;2023-06-14T04:52:23;25.59;43.19
68493;HTU21D;55483;51.106;5.984;2023-06-14T04:54:52;26.31;41.62
68493;HTU21D;55483;51.106;5.984;2023-06-14T04:57:19;26.75;40.72
68493;HTU21D;55483;51.106;5.984;2023-06-14T04:59:48;27.11;39.54
68493;HTU21D;55483;51.106;5.984;2023-06-14T05:02:14;27.55;38.87
68493;HTU21D;55483;51.106;5.984;2023-06-14T05:04:39;28.00;38.05
68493;HTU21D;55483;51.106;5.984;2023-06-14T05:07:09;28.47;37.20
68493;HTU21D;55483;51.106;5.984;2023-06-14T05:09:36;28.90;36.62
68493;HTU21D;55483;51.106;5.984;2023-06-14T05:12:02;29.39;35.59
68493;HTU21D;55483;51.106;5.984;2023-06-14T05:14:28;29.80;35.03
68493;HTU21D;55483;51.106;5.984;2023-06-14T05:16:56;29.96;34.44
68493;HTU21D;55483;51.106;5.984;2023-06-14T05:19:22;30.18;34.25
68493;HTU21D;55483;51.106;5.984;2023-06-14T05:21:48;30.46;33.47
68493;HTU21D;55483;51.106;5.984;2023-06-14T05:24:14;30.63;32.68
68493;HTU21D;55483;51.106;5.984;2023-06-14T05:26:40;30.86;31.99
68493;HTU21D;55483;51.106;5.984;2023-06-14T05:29:05;31.12;31.25
68493;HTU21D;55483;51.106;5.984;2023-06-14T05:31:32;31.26;30.87
68493;HTU21D;55483;51.106;5.984;2023-06-14T05:33:58;31.55;30.74
68493;HTU21D;55483;51.106;5.984;2023-06-14T05:36:23;31.86;30.01
68493;HTU21D;55483;51.106;5.984;2023-06-14T05:38:49;32.11;29.47
68493;HTU21D;55483;51.106;5.984;2023-06-14T05:41:16;32.40;29.14
68493;HTU21D;55483;51.106;5.984;2023-06-14T05:43:41;32.85;28.32
68493;HTU21D;55483;51.106;5.984;2023-06-14T05:46:07;33.33;27.24
68493;HTU21D;55483;51.106;5.984;2023-06-14T05:48:33;33.65;26.52
68493;HTU21D;55483;51.106;5.984;2023-06-14T05:50:58;33.95;26.10
68493;HTU21D;55483;51.106;5.984;2023-06-14T05:53:25;34.07;25.83
68493;HTU21D;55483;51.106;5.984;2023-06-14T05:55:51;33.87;26.22
68493;HTU21D;55483;51.106;5.984;2023-06-14T05:58:19;33.68;26.04
68493;HTU21D;55483;51.106;5.984;2023-06-14T06:00:45;33.51;26.52
68493;HTU21D;55483;51.106;5.984;2023-06-14T06:03:11;33.94;26.04
68493;HTU21D;55483;51.106;5.984;2023-06-14T06:05:38;33.91;25.62
68493;HTU21D;55483;51.106;5.984;2023-06-14T06:08:04;33.28;26.68
68493;HTU21D;55483;51.106;5.984;2023-06-14T06:10:29;32.94;27.15
68493;HTU21D;55483;51.106;5.984;2023-06-14T06:12:55;32.75;27.36
68493;HTU21D;55483;51.106;5.984;2023-06-14T06:15:22;32.60;27.41
68493;HTU21D;55483;51.106;5.984;2023-06-14T06:17:47;32.70;27.39
68493;HTU21D;55483;51.106;5.984;2023-06-14T06:20:13;32.86;26.79
68493;HTU21D;55483;51.106;5.984;2023-06-14T06:22:39;32.96;26.52
68493;HTU21D;55483;51.106;5.984;2023-06-14T06:25:05;33.21;26.38
68493;HTU21D;55483;51.106;5.984;2023-06-14T06:27:32;33.40;25.91
68493;HTU21D;55483;51.106;5.984;2023-06-14T06:29:58;33.08;26.36
68493;HTU21D;55483;51.106;5.984;2023-06-14T06:32:24;32.97;26.89
68493;HTU21D;55483;51.106;5.984;2023-06-14T06:34:50;33.09;26.91
68493;HTU21D;55483;51.106;5.984;2023-06-14T06:37:17;33.63;25.69
68493;HTU21D;55483;51.106;5.984;2023-06-14T06:39:43;33.99;25.10
68493;HTU21D;55483;51.106;5.984;2023-06-14T06:42:09;33.77;22.71
68493;HTU21D;55483;51.106;5.984;2023-06-14T06:44:36;33.15;24.69
68493;HTU21D;55483;51.106;5.984;2023-06-14T06:47:03;32.77;26.23
68493;HTU21D;55483;51.106;5.984;2023-06-14T06:49:29;32.08;27.02
68493;HTU21D;55483;51.106;5.984;2023-06-14T06:52:06;32.04;26.62
68493;HTU21D;55483;51.106;5.984;2023-06-14T06:54:36;31.00;28.01
68493;HTU21D;55483;51.106;5.984;2023-06-14T06:57:03;30.71;29.04
68493;HTU21D;55483;51.106;5.984;2023-06-14T06:59:32;31.52;27.85
68493;HTU21D;55483;51.106;5.984;2023-06-14T07:01:58;31.81;26.32
68493;HTU21D;55483;51.106;5.984;2023-06-14T07:04:24;31.79;27.44
68493;HTU21D;55483;51.106;5.984;2023-06-14T07:06:51;32.03;26.68
68493;HTU21D;55483;51.106;5.984;2023-06-14T07:09:17;31.59;26.42
68493;HTU21D;55483;51.106;5.984;2023-06-14T07:11:46;31.58;26.69
68493;HTU21D;55483;51.106;5.984;2023-06-14T07:14:16;32.12;26.20
68493;HTU21D;55483;51.106;5.984;2023-06-14T07:16:43;32.44;25.78
68493;HTU21D;55483;51.106;5.984;2023-06-14T07:19:09;33.03;25.29
68493;HTU21D;55483;51.106;5.984;2023-06-14T07:21:35;33.18;24.24
68493;HTU21D;55483;51.106;5.984;2023-06-14T07:24:05;32.87;24.49
68493;HTU21D;55483;51.106;5.984;2023-06-14T07:26:32;32.52;24.29
68493;HTU21D;55483;51.106;5.984;2023-06-14T07:28:58;32.33;25.30
68493;HTU21D;55483;51.106;5.984;2023-06-14T07:31:24;31.72;26.23
68493;HTU21D;55483;51.106;5.984;2023-06-14T07:33:51;31.40;26.52
68493;HTU21D;55483;51.106;5.984;2023-06-14T07:36:18;30.72;28.63
68493;HTU21D;55483;51.106;5.984;2023-06-14T07:38:45;31.33;27.13
68493;HTU21D;55483;51.106;5.984;2023-06-14T07:41:12;32.23;26.29
68493;HTU21D;55483;51.106;5.984;2023-06-14T07:43:38;32.60;25.37
68493;HTU21D;55483;51.106;5.984;2023-06-14T07:46:04;32.90;25.17
68493;HTU21D;55483;51.106;5.984;2023-06-14T07:48:30;33.66;23.40
68493;HTU21D;55483;51.106;5.984;2023-06-14T07:50:56;33.92;23.37
68493;HTU21D;55483;51.106;5.984;2023-06-14T07:53:22;33.34;22.81
68493;HTU21D;55483;51.106;5.984;2023-06-14T07:55:53;32.38;24.85
68493;HTU21D;55483;51.106;5.984;2023-06-14T07:58:19;31.20;26.97
68493;HTU21D;55483;51.106;5.984;2023-06-14T08:00:44;31.78;26.41
68493;HTU21D;55483;51.106;5.984;2023-06-14T08:03:11;32.83;25.11
68493;HTU21D;55483;51.106;5.984;2023-06-14T08:05:37;33.55;23.75
68493;HTU21D;55483;51.106;5.984;2023-06-14T08:08:02;33.93;22.63
68493;HTU21D;55483;51.106;5.984;2023-06-14T08:10:28;33.94;21.47
68493;HTU21D;55483;51.106;5.984;2023-06-14T08:12:57;33.88;22.63
68493;HTU21D;55483;51.106;5.984;2023-06-14T08:15:28;33.82;22.11
68493;HTU21D;55483;51.106;5.984;2023-06-14T08:17:56;33.75;22.56
68493;HTU21D;55483;51.106;5.984;2023-06-14T08:20:21;33.46;23.27
68493;HTU21D;55483;51.106;5.984;2023-06-14T08:22:48;33.58;23.30
68493;HTU21D;55483;51.106;5.984;2023-06-14T08:25:15;33.35;22.31
68493;HTU21D;55483;51.106;5.984;2023-06-14T08:27:41;32.73;23.41
68493;HTU21D;55483;51.106;5.984;2023-06-14T08:30:08;32.04;26.03
68493;HTU21D;55483;51.106;5.984;2023-06-14T08:32:33;32.59;25.63
68493;HTU21D;55483;51.106;5.984;2023-06-14T08:34:59;33.21;23.94
68493;HTU21D;55483;51.106;5.984;2023-06-14T08:37:25;33.71;23.51
68493;HTU21D;55483;51.106;5.984;2023-06-14T08:39:52;34.64;22.88
68493;HTU21D;55483;51.106;5.984;2023-06-14T08:42:18;35.86;20.88
68493;HTU21D;55483;51.106;5.984;2023-06-14T08:44:48;37.15;18.96
68493;HTU21D;55483;51.106;5.984;2023-06-14T08:47:15;36.71;19.18
68493;HTU21D;55483;51.106;5.984;2023-06-14T08:49:46;35.13;21.00
68493;HTU21D;55483;51.106;5.984;2023-06-14T08:52:13;34.82;21.26
68493;HTU21D;55483;51.106;5.984;2023-06-14T08:54:41;35.35;20.55
68493;HTU21D;55483;51.106;5.984;2023-06-14T08:57:11;35.65;20.73
68493;HTU21D;55483;51.106;5.984;2023-06-14T08:59:46;36.02;19.80
68493;HTU21D;55483;51.106;5.984;2023-06-14T09:02:15;36.25;19.44
68493;HTU21D;55483;51.106;5.984;2023-06-14T09:04:43;35.39;21.41
68493;HTU21D;55483;51.106;5.984;2023-06-14T09:07:10;34.60;21.92
68493;HTU21D;55483;51.106;5.984;2023-06-14T09:09:40;33.90;22.05
68493;HTU21D;55483;51.106;5.984;2023-06-14T09:12:10;34.14;20.80
68493;HTU21D;55483;51.106;5.984;2023-06-14T09:14:37;35.42;20.86
68493;HTU21D;55483;51.106;5.984;2023-06-14T09:17:07;36.75;15.83
68493;HTU21D;55483;51.106;5.984;2023-06-14T09:19:37;37.75;15.52
68493;HTU21D;55483;51.106;5.984;2023-06-14T09:22:04;38.64;14.72
68493;HTU21D;55483;51.106;5.984;2023-06-14T09:24:56;39.17;13.05
68493;HTU21D;55483;51.106;5.984;2023-06-14T09:27:22;39.07;13.39
68493;HTU21D;55483;51.106;5.984;2023-06-14T09:29:48;39.62;12.84
68493;HTU21D;55483;51.106;5.984;2023-06-14T09:32:15;40.32;12.30
68493;HTU21D;55483;51.106;5.984;2023-06-14T09:34:41;41.22;11.47
68493;HTU21D;55483;51.106;5.984;2023-06-14T09:37:08;40.81;10.91
68493;HTU21D;55483;51.106;5.984;2023-06-14T09:39:35;39.70;12.55
68493;HTU21D;55483;51.106;5.984;2023-06-14T09:42:18;38.66;12.91
68493;HTU21D;55483;51.106;5.984;2023-06-14T09:44:50;36.97;13.65
68493;HTU21D;55483;51.106;5.984;2023-06-14T09:47:16;37.04;14.03
68493;HTU21D;55483;51.106;5.984;2023-06-14T09:49:42;37.23;12.66
68493;HTU21D;55483;51.106;5.984;2023-06-14T09:52:14;35.97;13.87
68493;HTU21D;55483;51.106;5.984;2023-06-14T09:54:44;35.16;15.49
68493;HTU21D;55483;51.106;5.984;2023-06-14T09:57:13;36.37;14.95
68493;HTU21D;55483;51.106;5.984;2023-06-14T09:59:45;37.77;13.44
68493;HTU21D;55483;51.106;5.984;2023-06-14T10:02:25;38.56;13.15
68493;HTU21D;55483;51.106;5.984;2023-06-14T10:05:15;39.12;12.32
68493;HTU21D;55483;51.106;5.984;2023-06-14T10:08:00;38.97;12.13
68493;HTU21D;55483;51.106;5.984;2023-06-14T10:10:29;38.33;12.75
68493;HTU21D;55483;51.106;5.984;2023-06-14T10:13:11;38.49;11.78
68493;HTU21D;55483;51.106;5.984;2023-06-14T10:16:05;38.38;12.38
68493;HTU21D;55483;51.106;5.984;2023-06-14T10:18:49;38.37;12.68
68493;HTU21D;55483;51.106;5.984;2023-06-14T10:24:04;40.16;11.11
68493;HTU21D;55483;51.106;5.984;2023-06-14T10:26:32;40.55;11.05
68493;HTU21D;55483;51.106;5.984;2023-06-14T10:28:59;41.40;10.46
68493;HTU21D;55483;51.106;5.984;2023-06-14T10:31:46;42.18;9.66
68493;HTU21D;55483;51.106;5.984;2023-06-14T10:34:27;41.39;9.24
68493;HTU21D;55483;51.106;5.984;2023-06-14T10:37:11;40.08;11.18
68493;HTU21D;55483;51.106;5.984;2023-06-14T10:39:44;39.36;12.55
68493;HTU21D;55483;51.106;5.984;2023-06-14T10:42:20;39.28;13.21
68493;HTU21D;55483;51.106;5.984;2023-06-14T10:45:01;39.99;12.76
68493;HTU21D;55483;51.106;5.984;2023-06-14T10:47:32;40.83;11.95
68493;HTU21D;55483;51.106;5.984;2023-06-14T10:50:11;41.25;11.60
68493;HTU21D;55483;51.106;5.984;2023-06-14T10:52:48;40.55;12.18
68493;HTU21D;55483;51.106;5.984;2023-06-14T10:55:24;39.40;13.33
68493;HTU21D;55483;51.106;5.984;2023-06-14T10:57:55;39.64;12.96
68493;HTU21D;55483;51.106;5.984;2023-06-14T11:00:29;40.12;12.30
68493;HTU21D;55483;51.106;5.984;2023-06-14T11:05:58;40.83;11.59
68493;HTU21D;55483;51.106;5.984;2023-06-14T11:12:00;41.30;11.07
68493;HTU21D;55483;51.106;5.984;2023-06-14T11:14:32;41.26;11.23
68493;HTU21D;55483;51.106;5.984;2023-06-14T11:16:58;41.32;11.40
68493;HTU21D;55483;51.106;5.984;2023-06-14T11:19:24;40.61;11.78
68493;HTU21D;55483;51.106;5.984;2023-06-14T11:21:50;38.09;15.15
68493;HTU21D;55483;51.106;5.984;2023-06-14T11:24:16;36.76;16.03
68493;HTU21D;55483;51.106;5.984;2023-06-14T11:26:43;35.98;17.18
68493;HTU21D;55483;51.106;5.984;2023-06-14T11:29:12;34.96;18.40
68493;HTU21D;55483;51.106;5.984;2023-06-14T11:31:38;33.62;21.94
68493;HTU21D;55483;51.106;5.984;2023-06-14T11:34:08;33.31;21.08
68493;HTU21D;55483;51.106;5.984;2023-06-14T11:36:34;33.29;21.39
68493;HTU21D;55483;51.106;5.984;2023-06-14T11:39:05;33.72;21.13
68493;HTU21D;55483;51.106;5.984;2023-06-14T11:41:37;34.33;20.44
68493;HTU21D;55483;51.106;5.984;2023-06-14T11:44:03;34.82;19.75
68493;HTU21D;55483;51.106;5.984;2023-06-14T11:46:30;34.62;20.02
68493;HTU21D;55483;51.106;5.984;2023-06-14T11:48:55;33.97;20.61
68493;HTU21D;55483;51.106;5.984;2023-06-14T11:51:21;33.83;20.40
68493;HTU21D;55483;51.106;5.984;2023-06-14T11:53:48;34.01;20.02
68493;HTU21D;55483;51.106;5.984;2023-06-14T11:56:14;34.36;19.47
68493;HTU21D;55483;51.106;5.984;2023-06-14T11:58:43;34.20;19.73
68493;HTU21D;55483;51.106;5.984;2023-06-14T12:01:09;33.04;21.14
68493;HTU21D;55483;51.106;5.984;2023-06-14T12:03:34;32.73;21.98
68493;HTU21D;55483;51.106;5.984;2023-06-14T12:06:08;32.64;21.92
68493;HTU21D;55483;51.106;5.984;2023-06-14T12:08:38;32.91;21.62
68493;HTU21D;55483;51.106;5.984;2023-06-14T12:11:13;33.29;20.76
68493;HTU21D;55483;51.106;5.984;2023-06-14T12:13:43;32.77;20.15
68493;HTU21D;55483;51.106;5.984;2023-06-14T12:16:14;32.32;21.07
68493;HTU21D;55483;51.106;5.984;2023-06-14T12:18:41;32.04;21.54
68493;HTU21D;55483;51.106;5.984;2023-06-14T12:21:34;31.76;21.92
68493;HTU21D;55483;51.106;5.984;2023-06-14T12:24:03;32.18;21.25
68493;HTU21D;55483;51.106;5.984;2023-06-14T12:26:30;32.48;20.66
68493;HTU21D;55483;51.106;5.984;2023-06-14T12:29:05;32.76;20.05
68493;HTU21D;55483;51.106;5.984;2023-06-14T12:31:31;33.12;19.80
68493;HTU21D;55483;51.106;5.984;2023-06-14T12:33:57;33.36;19.60
68493;HTU21D;55483;51.106;5.984;2023-06-14T12:36:29;33.46;19.84
68493;HTU21D;55483;51.106;5.984;2023-06-14T12:39:20;33.35;20.15
68493;HTU21D;55483;51.106;5.984;2023-06-14T12:41:47;33.35;20.18
68493;HTU21D;55483;51.106;5.984;2023-06-14T12:44:13;33.41;20.23
68493;HTU21D;55483;51.106;5.984;2023-06-14T12:46:40;33.59;20.58
68493;HTU21D;55483;51.106;5.984;2023-06-14T12:49:21;33.58;20.44
68493;HTU21D;55483;51.106;5.984;2023-06-14T12:51:47;33.00;21.15
68493;HTU21D;55483;51.106;5.984;2023-06-14T12:54:12;32.66;21.44
68493;HTU21D;55483;51.106;5.984;2023-06-14T12:56:39;32.60;21.70
68493;HTU21D;55483;51.106;5.984;2023-06-14T12:59:13;32.71;21.48
68493;HTU21D;55483;51.106;5.984;2023-06-14T13:01:40;32.83;21.64
68493;HTU21D;55483;51.106;5.984;2023-06-14T13:04:06;32.81;21.47
68493;HTU21D;55483;51.106;5.984;2023-06-14T13:06:35;32.92;21.61
68493;HTU21D;55483;51.106;5.984;2023-06-14T13:09:02;33.27;20.47
68493;HTU21D;55483;51.106;5.984;2023-06-14T13:11:29;33.55;20.06
68493;HTU21D;55483;51.106;5.984;2023-06-14T13:13:55;33.13;20.14
68493;HTU21D;55483;51.106;5.984;2023-06-14T13:16:22;32.66;20.59
68493;HTU21D;55483;51.106;5.984;2023-06-14T13:18:48;32.76;20.34
68493;HTU21D;55483;51.106;5.984;2023-06-14T13:21:26;32.91;20.26
68493;HTU21D;55483;51.106;5.984;2023-06-14T13:24:09;32.41;20.02
68493;HTU21D;55483;51.106;5.984;2023-06-14T13:26:36;32.26;20.89
68493;HTU21D;55483;51.106;5.984;2023-06-14T13:29:03;32.43;20.25
68493;HTU21D;55483;51.106;5.984;2023-06-14T13:31:29;32.46;20.21
68493;HTU21D;55483;51.106;5.984;2023-06-14T13:33:55;32.17;20.86
68493;HTU21D;55483;51.106;5.984;2023-06-14T13:36:22;32.14;21.40
68493;HTU21D;55483;51.106;5.984;2023-06-14T13:38:47;31.45;23.33
68493;HTU21D;55483;51.106;5.984;2023-06-14T13:41:13;30.57;24.36
68493;HTU21D;55483;51.106;5.984;2023-06-14T13:43:43;30.28;24.96
68493;HTU21D;55483;51.106;5.984;2023-06-14T13:46:24;30.49;24.71
68493;HTU21D;55483;51.106;5.984;2023-06-14T13:48:49;30.50;25.17
68493;HTU21D;55483;51.106;5.984;2023-06-14T13:51:15;30.22;25.21
68493;HTU21D;55483;51.106;5.984;2023-06-14T13:53:53;30.39;25.17
68493;HTU21D;55483;51.106;5.984;2023-06-14T13:56:21;30.72;24.36
68493;HTU21D;55483;51.106;5.984;2023-06-14T13:58:50;31.12;23.54
68493;HTU21D;55483;51.106;5.984;2023-06-14T14:01:18;31.49;23.37
68493;HTU21D;55483;51.106;5.984;2023-06-14T14:03:47;31.75;22.98
68493;HTU21D;55483;51.106;5.984;2023-06-14T14:06:13;31.81;23.20
68493;HTU21D;55483;51.106;5.984;2023-06-14T14:08:39;31.79;23.40
68493;HTU21D;55483;51.106;5.984;2023-06-14T14:11:06;31.64;23.56
68493;HTU21D;55483;51.106;5.984;2023-06-14T14:13:34;31.48;23.88
68493;HTU21D;55483;51.106;5.984;2023-06-14T14:16:04;31.34;24.42
68493;HTU21D;55483;51.106;5.984;2023-06-14T14:18:29;30.39;25.81
68493;HTU21D;55483;51.106;5.984;2023-06-14T14:20:57;29.57;27.84
68493;HTU21D;55483;51.106;5.984;2023-06-14T14:23:22;29.64;27.17
68493;HTU21D;55483;51.106;5.984;2023-06-14T14:25:48;30.10;26.32
68493;HTU21D;55483;51.106;5.984;2023-06-14T14:28:14;30.50;26.50
68493;HTU21D;55483;51.106;5.984;2023-06-14T14:30:46;30.66;26.22
68493;HTU21D;55483;51.106;5.984;2023-06-14T14:33:18;30.51;25.30
68493;HTU21D;55483;51.106;5.984;2023-06-14T14:35:45;30.46;26.34
68493;HTU21D;55483;51.106;5.984;2023-06-14T14:38:12;30.28;27.45
68493;HTU21D;55483;51.106;5.984;2023-06-14T14:40:39;30.54;26.51
68493;HTU21D;55483;51.106;5.984;2023-06-14T14:43:06;30.85;25.91
68493;HTU21D;55483;51.106;5.984;2023-06-14T14:45:32;31.09;25.92
68493;HTU21D;55483;51.106;5.984;2023-06-14T14:47:57;31.05;26.17
68493;HTU21D;55483;51.106;5.984;2023-06-14T14:50:25;31.00;26.12
68493;HTU21D;55483;51.106;5.984;2023-06-14T14:52:52;30.23;27.05
68493;HTU21D;55483;51.106;5.984;2023-06-14T14:55:19;29.92;28.10
68493;HTU21D;55483;51.106;5.984;2023-06-14T14:57:46;29.74;27.94
68493;HTU21D;55483;51.106;5.984;2023-06-14T15:00:16;29.96;27.55
68493;HTU21D;55483;51.106;5.984;2023-06-14T15:02:42;30.38;26.73
68493;HTU21D;55483;51.106;5.984;2023-06-14T15:05:07;30.70;26.17
68493;HTU21D;55483;51.106;5.984;2023-06-14T15:07:33;30.93;26.17
68493;HTU21D;55483;51.106;5.984;2023-06-14T15:09:59;31.10;25.90
68493;HTU21D;55483;51.106;5.984;2023-06-14T15:12:26;31.10;25.72
68493;HTU21D;55483;51.106;5.984;2023-06-14T15:14:53;30.84;26.87
68493;HTU21D;55483;51.106;5.984;2023-06-14T15:17:19;30.72;26.05
68493;HTU21D;55483;51.106;5.984;2023-06-14T15:19:46;29.85;26.52
68493;HTU21D;55483;51.106;5.984;2023-06-14T15:22:15;29.11;28.45
68493;HTU21D;55483;51.106;5.984;2023-06-14T15:24:42;28.69;29.37
68493;HTU21D;55483;51.106;5.984;2023-06-14T15:27:16;28.65;29.74
68493;HTU21D;55483;51.106;5.984;2023-06-14T15:29:42;29.06;29.13